Time;durP1;ratioP1;P1;durP2;ratioP2;P2;SDS_P1;SDS_P2;PMS_P1;PMS_P2;Temp;Humidity;BMP_temperature;BMP_pressure;BME280_temperature;BME280_humidity;BME280_pressure;Samples;Min_cycle;Max_cycle;Signal;HPM_P1;HPM_P2
2022/04/04 00:00:38;;;;;;;7.03;4.28;;;-2.30;99.90;;;;;;5002134;28;20045;-77
2022/04/04 00:03:04;;;;;;;4.78;3.30;;;-2.20;99.90;;;;;;4998761;28;20501;-76
2022/04/04 00:05:30;;;;;;;3.80;2.55;;;-2.30;99.90;;;;;;4997531;28;20026;-76
2022/04/04 00:07:56;;;;;;;5.07;3.67;;;-2.20;99.90;;;;;;5003554;28;20042;-77
2022/04/04 00:10:22;;;;;;;3.63;3.30;;;-2.30;99.90;;;;;;5001228;28;20022;-77
2022/04/04 00:12:47;;;;;;;3.53;2.55;;;-2.40;99.90;;;;;;4999365;28;20030;-77
2022/04/04 00:15:13;;;;;;;3.95;3.55;;;-2.80;99.90;;;;;;5000139;28;20114;-76
2022/04/04 00:17:38;;;;;;;3.78;3.20;;;-2.80;99.90;;;;;;4982406;28;20045;-77
2022/04/04 00:20:07;;;;;;;2.35;2.15;;;-2.80;99.90;;;;;;5003901;28;20503;-76
2022/04/04 00:22:33;;;;;;;2.83;2.65;;;-2.80;99.90;;;;;;5000356;28;20381;-76
2022/04/04 00:24:58;;;;;;;3.78;3.17;;;-3.00;99.90;;;;;;4995367;28;20036;-77
2022/04/04 00:27:24;;;;;;;13.27;6.15;;;-3.00;99.90;;;;;;4982190;28;20041;-77
2022/04/04 00:29:50;;;;;;;10.65;4.07;;;-2.90;99.90;;;;;;5000365;28;20037;-76
2022/04/04 00:32:15;;;;;;;8.38;4.57;;;-2.90;99.90;;;;;;5000430;28;20588;-76
2022/04/04 00:34:41;;;;;;;12.10;5.10;;;-2.90;99.90;;;;;;5002853;28;20045;-76
2022/04/04 00:37:06;;;;;;;11.93;6.90;;;-2.90;99.90;;;;;;4997707;28;20728;-77
2022/04/04 00:39:32;;;;;;;8.88;4.15;;;-2.80;99.90;;;;;;4982370;28;20030;-77
2022/04/04 00:41:58;;;;;;;5.93;3.75;;;-2.80;99.90;;;;;;4997907;28;20120;-76
2022/04/04 00:44:25;;;;;;;4.80;3.38;;;-2.80;99.90;;;;;;4996606;28;20044;-77
2022/04/04 00:46:51;;;;;;;3.85;2.53;;;-2.80;99.90;;;;;;4997772;28;20519;-77
2022/04/04 00:49:17;;;;;;;4.50;3.40;;;-2.80;99.90;;;;;;5000235;28;20108;-77
2022/04/04 00:51:43;;;;;;;4.78;3.80;;;-2.80;99.90;;;;;;4997037;28;21535;-76
2022/04/04 00:54:09;;;;;;;3.33;3.05;;;-2.80;99.90;;;;;;4997403;28;20561;-76
2022/04/04 00:56:36;;;;;;;6.68;3.63;;;-2.70;99.90;;;;;;4996798;28;20107;-77
2022/04/04 00:59:03;;;;;;;4.68;2.83;;;-2.80;99.90;;;;;;4980605;28;20054;-77
2022/04/04 01:01:29;;;;;;;4.43;3.30;;;-2.80;99.90;;;;;;4995188;28;20138;-76
2022/04/04 01:03:55;;;;;;;3.53;3.17;;;-2.80;99.90;;;;;;5001395;28;20292;-77
2022/04/04 01:06:21;;;;;;;4.50;2.85;;;-2.80;99.90;;;;;;5001099;28;20826;-77
2022/04/04 01:08:47;;;;;;;5.72;2.80;;;-2.80;99.90;;;;;;4998042;28;20043;-77
2022/04/04 01:11:12;;;;;;;3.70;3.10;;;-2.80;99.90;;;;;;4994787;28;20226;-77
2022/04/04 01:13:44;;;;;;;5.10;3.55;;;-2.80;99.90;;;;;;5000008;28;20447;-77
2022/04/04 01:16:10;;;;;;;5.22;3.10;;;-2.90;99.90;;;;;;4999675;28;20018;-77
2022/04/04 01:18:36;;;;;;;3.10;2.90;;;-3.20;99.90;;;;;;4997236;28;20054;-77
2022/04/04 01:21:02;;;;;;;2.92;2.40;;;-3.30;99.90;;;;;;4994988;28;20883;-77
2022/04/04 01:23:39;;;;;;;2.50;2.33;;;-3.30;99.90;;;;;;4997793;28;20033;-77
2022/04/04 01:26:06;;;;;;;2.30;2.15;;;-3.50;99.90;;;;;;4998520;28;20059;-77
2022/04/04 01:28:32;;;;;;;3.10;2.85;;;-3.60;99.90;;;;;;4995964;28;20466;-77
2022/04/04 01:30:57;;;;;;;4.05;2.65;;;-3.60;99.90;;;;;;4998014;28;20167;-77
2022/04/04 01:33:23;;;;;;;4.18;2.55;;;-3.50;99.90;;;;;;4999202;28;20030;-76
2022/04/04 01:35:48;;;;;;;5.35;3.28;;;-3.50;99.90;;;;;;4996660;28;20508;-77
2022/04/04 01:38:14;;;;;;;4.20;3.95;;;-3.40;99.90;;;;;;5000761;28;20080;-76
2022/04/04 01:40:40;;;;;;;6.35;3.65;;;-3.70;99.90;;;;;;4983880;28;20029;-77
2022/04/04 01:43:06;;;;;;;3.75;3.35;;;-3.70;99.90;;;;;;5000409;28;20036;-77
2022/04/04 01:48:15;;;;;;;3.90;3.53;;;-3.60;99.90;;;;;;4997939;28;20041;-77
2022/04/04 01:50:41;;;;;;;3.67;2.95;;;-3.50;99.90;;;;;;4999959;28;20030;-77
2022/04/04 01:55:51;;;;;;;3.35;3.05;;;-3.50;99.90;;;;;;4995366;28;20061;-77
2022/04/04 01:58:17;;;;;;;2.95;2.72;;;-3.50;99.90;;;;;;4997347;28;20030;-77
2022/04/04 02:00:43;;;;;;;2.55;2.38;;;-3.60;99.90;;;;;;4995835;28;20045;-76
2022/04/04 02:03:08;;;;;;;3.38;3.08;;;-3.50;99.90;;;;;;5000452;28;20046;-77
2022/04/04 02:05:35;;;;;;;3.45;3.15;;;-3.50;99.90;;;;;;4997397;28;20168;-77
2022/04/04 02:08:01;;;;;;;3.97;2.28;;;-3.60;99.90;;;;;;4997209;28;20473;-77
2022/04/04 02:10:27;;;;;;;8.55;2.05;;;-3.60;99.90;;;;;;4997241;28;20116;-77
2022/04/04 02:12:52;;;;;;;2.95;2.45;;;-3.80;99.90;;;;;;4997446;28;20792;-77
2022/04/04 02:15:18;;;;;;;3.05;2.58;;;-3.90;99.90;;;;;;4995489;28;20069;-77
2022/04/04 02:17:44;;;;;;;2.78;2.45;;;-3.90;99.90;;;;;;4997220;28;20034;-77
2022/04/04 02:20:10;;;;;;;3.05;2.25;;;-3.90;99.90;;;;;;4997678;28;20089;-77
2022/04/04 02:22:36;;;;;;;1.75;1.65;;;-3.80;99.90;;;;;;4997229;28;20036;-77
2022/04/04 02:25:02;;;;;;;1.88;1.77;;;-3.90;99.90;;;;;;4997322;28;20282;-77
2022/04/04 02:27:28;;;;;;;4.57;3.00;;;-4.00;99.90;;;;;;4997273;28;20033;-77
2022/04/04 02:29:55;;;;;;;3.20;2.70;;;-4.00;99.90;;;;;;4998225;28;20041;-77
2022/04/04 02:32:20;;;;;;;7.32;2.65;;;-3.90;99.90;;;;;;4995000;28;20465;-77
2022/04/04 02:34:46;;;;;;;2.70;2.50;;;-3.80;99.90;;;;;;4995526;28;20143;-77
2022/04/04 02:37:14;;;;;;;2.97;2.72;;;-3.80;99.90;;;;;;4995378;28;20037;-77
2022/04/04 02:39:40;;;;;;;3.13;2.07;;;-3.80;99.90;;;;;;4998374;28;20124;-77
2022/04/04 02:42:06;;;;;;;1.88;1.77;;;-3.80;99.90;;;;;;4996360;28;20366;-76
2022/04/04 02:44:32;;;;;;;2.78;2.60;;;-3.80;99.90;;;;;;4996592;28;20458;-77
2022/04/04 02:46:58;;;;;;;2.88;2.60;;;-3.90;99.90;;;;;;4995415;28;20030;-77
2022/04/04 02:49:24;;;;;;;3.50;2.13;;;-4.20;99.90;;;;;;4996490;28;20385;-77
2022/04/04 02:51:50;;;;;;;1.40;1.40;;;-4.30;99.90;;;;;;4997353;28;20041;-77
2022/04/04 02:54:16;;;;;;;2.78;2.60;;;-4.30;99.90;;;;;;4999075;28;20943;-77
2022/04/04 02:56:42;;;;;;;2.45;2.25;;;-4.30;99.90;;;;;;4998265;28;20030;-77
2022/04/04 02:59:08;;;;;;;3.47;2.78;;;-4.30;99.90;;;;;;4997343;28;20092;-77
2022/04/04 03:01:35;;;;;;;2.33;2.05;;;-4.30;99.90;;;;;;4995287;28;20133;-77
2022/04/04 03:04:02;;;;;;;2.10;2.00;;;-4.40;99.90;;;;;;4996147;28;20388;-77
2022/04/04 03:06:28;;;;;;;3.25;2.42;;;-4.30;99.90;;;;;;4996177;28;20720;-77
2022/04/04 03:08:54;;;;;;;3.17;2.05;;;-4.30;99.90;;;;;;4984384;28;20097;-77
2022/04/04 03:11:20;;;;;;;3.03;2.30;;;-4.60;99.90;;;;;;4999060;28;20078;-77
2022/04/04 03:13:46;;;;;;;1.88;1.65;;;-4.70;99.90;;;;;;4979660;28;20128;-77
2022/04/04 03:16:12;;;;;;;2.13;1.92;;;-4.70;99.90;;;;;;4996453;28;20034;-77
2022/04/04 03:18:38;;;;;;;3.28;2.83;;;-5.00;99.90;;;;;;4993120;28;20050;-77
2022/04/04 03:21:04;;;;;;;2.58;2.38;;;-4.90;99.90;;;;;;4995427;28;20077;-77
2022/04/04 03:23:31;;;;;;;2.35;2.15;;;-4.80;99.90;;;;;;4995667;28;20109;-77
2022/04/04 03:25:57;;;;;;;2.38;2.25;;;-4.60;99.90;;;;;;4994779;28;20039;-77
2022/04/04 03:28:22;;;;;;;5.70;2.45;;;-4.60;99.90;;;;;;4994811;28;20026;-77
2022/04/04 03:30:48;;;;;;;1.92;1.83;;;-4.70;99.90;;;;;;4992740;28;20038;-77
2022/04/04 03:33:15;;;;;;;2.85;2.38;;;-4.70;99.90;;;;;;5001794;28;20030;-77
2022/04/04 03:35:41;;;;;;;2.75;2.55;;;-4.60;99.90;;;;;;4996807;28;20037;-77
2022/04/04 03:38:10;;;;;;;3.08;2.78;;;-4.50;99.90;;;;;;4999408;28;20034;-77
2022/04/04 03:40:37;;;;;;;3.65;2.72;;;-4.40;99.90;;;;;;5000199;28;20044;-77
2022/04/04 03:43:04;;;;;;;2.78;2.50;;;-4.40;99.90;;;;;;4984277;28;20446;-77
2022/04/04 03:45:30;;;;;;;3.35;2.80;;;-4.50;99.90;;;;;;4999497;28;20073;-77
2022/04/04 03:47:57;;;;;;;2.33;2.13;;;-4.50;99.90;;;;;;4983987;28;20128;-77
2022/04/04 03:50:24;;;;;;;2.00;1.70;;;-4.40;99.90;;;;;;4980317;28;20033;-77
2022/04/04 03:52:55;;;;;;;2.60;2.28;;;-4.40;99.90;;;;;;5000160;28;20034;-77
2022/04/04 03:55:26;;;;;;;5.43;3.17;;;-4.50;99.90;;;;;;5003018;28;20030;-77
2022/04/04 03:57:52;;;;;;;2.35;2.25;;;-4.60;99.90;;;;;;4998944;28;20054;-77
2022/04/04 04:00:20;;;;;;;1.67;1.58;;;-4.80;99.90;;;;;;5001279;28;20034;-77
2022/04/04 04:02:46;;;;;;;1.42;1.42;;;-4.80;99.90;;;;;;5000843;28;20137;-77
2022/04/04 04:05:12;;;;;;;2.92;2.67;;;-4.80;99.90;;;;;;4981752;28;20484;-77
2022/04/04 04:07:38;;;;;;;4.18;2.40;;;-4.80;99.90;;;;;;4998719;28;20034;-77
2022/04/04 04:10:05;;;;;;;2.30;2.15;;;-4.80;99.90;;;;;;4999078;28;20042;-77
2022/04/04 04:12:31;;;;;;;2.60;1.90;;;-5.00;99.90;;;;;;4997062;28;20483;-77
2022/04/04 04:14:57;;;;;;;0.93;0.93;;;-5.20;99.90;;;;;;4998953;28;20034;-77
2022/04/04 04:17:24;;;;;;;1.80;1.70;;;-5.20;99.90;;;;;;4997191;28;20041;-77
2022/04/04 04:22:36;;;;;;;1.77;1.75;;;-5.30;99.90;;;;;;4999800;28;20456;-77
2022/04/04 04:25:03;;;;;;;3.33;2.35;;;-5.30;99.90;;;;;;5001245;28;20037;-77
2022/04/04 04:27:28;;;;;;;2.47;2.33;;;-5.40;99.90;;;;;;5001272;28;20042;-77
2022/04/04 04:29:54;;;;;;;2.13;1.95;;;-5.40;99.90;;;;;;5002586;28;20034;-77
2022/04/04 04:32:21;;;;;;;3.22;2.92;;;-5.30;99.90;;;;;;5000189;28;20061;-77
2022/04/04 04:34:50;;;;;;;2.55;2.35;;;-5.20;99.90;;;;;;5000912;28;20033;-77
2022/04/04 04:37:17;;;;;;;1.08;1.08;;;-5.30;99.90;;;;;;5001968;28;20041;-77
2022/04/04 04:39:43;;;;;;;4.05;2.58;;;-5.30;99.90;;;;;;4999037;28;20473;-77
2022/04/04 04:42:09;;;;;;;2.17;1.88;;;-5.30;99.90;;;;;;5001976;28;20553;-77
2022/04/04 04:44:34;;;;;;;2.72;2.58;;;-5.20;99.90;;;;;;4982636;28;20049;-77
2022/04/04 04:47:00;;;;;;;2.65;2.47;;;-5.10;99.90;;;;;;4984049;28;20037;-77
2022/04/04 04:49:26;;;;;;;1.80;1.65;;;-5.20;99.90;;;;;;5002055;28;20033;-77
2022/04/04 04:51:53;;;;;;;1.70;1.65;;;-5.10;99.90;;;;;;4998835;28;20376;-77
2022/04/04 04:54:19;;;;;;;2.13;2.03;;;-5.20;99.90;;;;;;5002730;28;20045;-77
2022/04/04 04:56:45;;;;;;;3.03;2.10;;;-5.20;99.90;;;;;;4998706;28;20030;-77
2022/04/04 04:59:11;;;;;;;2.33;2.08;;;-5.20;99.90;;;;;;4998131;28;20777;-77
2022/04/04 05:01:37;;;;;;;2.92;2.72;;;-5.10;99.90;;;;;;4978236;28;20168;-77
2022/04/04 05:04:02;;;;;;;3.08;2.85;;;-5.10;99.90;;;;;;5001493;28;20053;-77
2022/04/04 05:06:28;;;;;;;1.63;1.63;;;-5.10;99.90;;;;;;5002768;28;20083;-77
2022/04/04 05:08:59;;;;;;;3.42;2.80;;;-5.10;99.90;;;;;;5000145;28;20045;-77
2022/04/04 05:11:26;;;;;;;2.30;1.88;;;-5.10;99.90;;;;;;5004152;28;20049;-77
2022/04/04 05:13:51;;;;;;;2.72;2.55;;;-5.10;99.90;;;;;;5005421;28;20037;-77
2022/04/04 05:16:17;;;;;;;3.05;2.85;;;-5.00;99.90;;;;;;5004115;28;20030;-77
2022/04/04 05:18:44;;;;;;;2.50;2.40;;;-5.00;99.90;;;;;;4995764;28;20389;-77
2022/04/04 05:21:11;;;;;;;3.38;2.10;;;-4.90;99.90;;;;;;5002946;28;20034;-77
2022/04/04 05:23:38;;;;;;;4.35;3.03;;;-5.00;99.90;;;;;;4997384;28;20114;-77
2022/04/04 05:26:04;;;;;;;2.53;2.42;;;-4.90;99.90;;;;;;5004160;28;20954;-77
2022/04/04 05:28:30;;;;;;;3.42;2.72;;;-4.80;99.90;;;;;;5004321;28;20516;-77
2022/04/04 05:30:56;;;;;;;6.38;2.95;;;-4.80;99.90;;;;;;4994449;28;20042;-77
2022/04/04 05:33:22;;;;;;;3.10;2.80;;;-4.70;99.90;;;;;;4997682;28;20037;-77
2022/04/04 05:35:48;;;;;;;1.88;1.77;;;-4.70;99.90;;;;;;4999798;28;20030;-77
2022/04/04 05:38:14;;;;;;;3.58;2.53;;;-4.60;99.90;;;;;;5002955;28;20033;-77
2022/04/04 05:40:41;;;;;;;4.20;3.75;;;-4.50;99.90;;;;;;5002517;28;21225;-77
2022/04/04 05:43:07;;;;;;;2.42;2.20;;;-4.50;99.90;;;;;;4990405;28;20109;-77
2022/04/04 05:45:35;;;;;;;7.38;3.83;;;-4.40;99.90;;;;;;4997753;28;20072;-77
2022/04/04 05:48:02;;;;;;;3.80;3.20;;;-4.40;99.90;;;;;;5007296;28;20452;-77
2022/04/04 05:50:28;;;;;;;2.90;2.33;;;-4.30;99.90;;;;;;5006285;28;20120;-77
2022/04/04 05:52:54;;;;;;;4.03;3.58;;;-4.30;99.90;;;;;;5003840;28;20110;-77
2022/04/04 05:55:19;;;;;;;3.63;3.42;;;-4.30;99.90;;;;;;4999681;28;20052;-77
2022/04/04 05:57:45;;;;;;;4.25;2.80;;;-4.20;99.90;;;;;;5005716;28;20042;-77
2022/04/04 06:00:13;;;;;;;4.28;3.88;;;-4.20;99.90;;;;;;5001394;28;20484;-77
2022/04/04 06:02:41;;;;;;;5.93;3.90;;;-4.20;99.90;;;;;;5003509;28;20038;-77
2022/04/04 06:05:09;;;;;;;3.88;3.22;;;-4.10;99.90;;;;;;5001705;28;20037;-76
2022/04/04 06:07:36;;;;;;;0.90;0.90;;;-4.10;99.90;;;;;;5001331;28;20048;-76
2022/04/04 06:10:04;;;;;;;3.70;2.42;;;-4.00;99.90;;;;;;4987159;28;20045;-77
2022/04/04 06:12:30;;;;;;;3.80;2.85;;;-3.90;99.90;;;;;;4985885;28;20057;-77
2022/04/04 06:14:55;;;;;;;3.13;2.92;;;-3.90;99.90;;;;;;5002112;28;20053;-77
2022/04/04 06:17:21;;;;;;;5.57;3.60;;;-3.80;99.90;;;;;;4981808;28;20049;-77
2022/04/04 06:19:47;;;;;;;3.15;2.95;;;-3.80;99.90;;;;;;4984031;28;20050;-77
2022/04/04 06:22:13;;;;;;;4.60;3.95;;;-3.70;99.90;;;;;;4995074;28;20046;-78
2022/04/04 06:24:38;;;;;;;5.97;3.67;;;-3.70;99.90;;;;;;4998208;28;20057;-77
2022/04/04 06:27:04;;;;;;;5.20;3.40;;;-3.60;99.90;;;;;;5002788;28;20033;-77
2022/04/04 06:29:30;;;;;;;4.25;2.67;;;-3.50;99.90;;;;;;4996058;28;20029;-78
2022/04/04 06:31:56;;;;;;;6.03;3.38;;;-3.40;99.90;;;;;;4998701;28;20054;-77
2022/04/04 06:34:24;;;;;;;5.63;3.80;;;-3.40;99.90;;;;;;4998823;28;20041;-78
2022/04/04 06:36:51;;;;;;;8.90;3.03;;;-3.30;99.90;;;;;;5004133;28;20029;-78
2022/04/04 06:39:17;;;;;;;2.65;2.50;;;-3.20;99.90;;;;;;5005186;28;20041;-78
2022/04/04 06:41:45;;;;;;;5.78;2.63;;;-3.10;99.90;;;;;;5004353;28;20034;-78
2022/04/04 06:44:12;;;;;;;3.95;2.97;;;-3.00;99.90;;;;;;5005559;28;20045;-77
2022/04/04 06:46:37;;;;;;;5.78;4.63;;;-2.90;99.90;;;;;;5000793;28;20053;-77
2022/04/04 06:49:04;;;;;;;4.28;3.25;;;-2.90;99.90;;;;;;5001647;28;20030;-78
2022/04/04 06:51:30;;;;;;;5.03;4.15;;;-2.80;99.90;;;;;;5003720;28;20057;-78
2022/04/04 06:53:55;;;;;;;3.47;2.92;;;-2.70;99.90;;;;;;5005469;28;20029;-78
2022/04/04 06:56:21;;;;;;;5.10;3.83;;;-2.70;99.90;;;;;;5005230;28;20025;-78
2022/04/04 06:58:47;;;;;;;3.33;3.05;;;-2.60;99.90;;;;;;5002951;28;20033;-78
2022/04/04 07:01:12;;;;;;;3.35;3.05;;;-2.50;99.90;;;;;;5003761;28;20049;-78
2022/04/04 07:03:38;;;;;;;7.85;4.63;;;-2.40;99.90;;;;;;5005049;28;20041;-78
2022/04/04 07:06:05;;;;;;;3.42;1.75;;;-2.40;99.90;;;;;;5003558;28;20039;-78
2022/04/04 07:08:31;;;;;;;6.68;4.57;;;-2.30;99.90;;;;;;5006337;28;20485;-77
2022/04/04 07:10:57;;;;;;;5.47;3.67;;;-2.30;99.90;;;;;;5007091;28;20053;-78
2022/04/04 07:13:23;;;;;;;6.95;3.95;;;-2.20;99.90;;;;;;5003147;28;20041;-77
2022/04/04 07:15:49;;;;;;;6.18;4.60;;;-2.10;99.90;;;;;;5005987;28;20061;-78
2022/04/04 07:18:14;;;;;;;5.45;4.63;;;-2.00;99.90;;;;;;4979958;28;20076;-77
2022/04/04 07:20:40;;;;;;;2.10;2.03;;;-1.80;99.90;;;;;;4998399;28;20564;-77
2022/04/04 07:23:05;;;;;;;3.47;2.63;;;-1.80;99.90;;;;;;4998720;28;20030;-77
2022/04/04 07:25:31;;;;;;;1.50;1.48;;;-1.80;99.90;;;;;;5005019;28;20076;-77
2022/04/04 07:27:57;;;;;;;3.60;3.30;;;-1.70;99.90;;;;;;5003525;28;20110;-78
2022/04/04 07:30:23;;;;;;;5.13;4.25;;;-1.60;99.90;;;;;;5003608;28;20377;-78
2022/04/04 07:32:50;;;;;;;2.85;2.65;;;-1.50;99.90;;;;;;5001232;28;20050;-78
2022/04/04 07:35:18;;;;;;;2.83;2.15;;;-1.50;99.90;;;;;;5009966;28;20082;-78
2022/04/04 07:37:45;;;;;;;6.30;5.07;;;-1.40;99.90;;;;;;5000657;28;20030;-77
2022/04/04 07:40:14;;;;;;;5.63;4.15;;;-1.30;99.90;;;;;;5003206;28;20050;-78
2022/04/04 07:42:42;;;;;;;2.72;2.50;;;-1.10;99.90;;;;;;5006692;28;20033;-78
2022/04/04 07:45:10;;;;;;;4.85;4.03;;;-1.10;99.90;;;;;;4998906;28;20045;-78
2022/04/04 07:47:37;;;;;;;9.23;2.58;;;-0.90;99.90;;;;;;4998724;28;20129;-77
2022/04/04 07:50:04;;;;;;;5.32;4.10;;;-0.70;99.90;;;;;;5001774;28;20539;-77
2022/04/04 07:52:30;;;;;;;4.13;3.20;;;-0.70;99.90;;;;;;5007459;28;20026;-78
2022/04/04 07:54:55;;;;;;;2.50;2.10;;;-0.50;99.90;;;;;;5006614;28;20424;-77
2022/04/04 07:57:21;;;;;;;3.22;2.83;;;-0.50;99.90;;;;;;4998538;28;20991;-78
2022/04/04 07:59:49;;;;;;;3.33;2.80;;;-0.50;99.90;;;;;;5005927;28;20030;-78
2022/04/04 08:02:15;;;;;;;2.17;2.08;;;-0.30;99.90;;;;;;5002922;28;20263;-77
2022/04/04 08:04:41;;;;;;;4.75;3.60;;;-0.20;99.90;;;;;;5004095;28;20121;-77
2022/04/04 08:07:06;;;;;;;3.47;3.17;;;-0.20;99.90;;;;;;5002570;28;20121;-78
2022/04/04 08:09:32;;;;;;;1.52;1.52;;;-0.10;99.90;;;;;;5004140;28;20109;-78
2022/04/04 08:11:58;;;;;;;3.08;2.85;;;0.00;99.90;;;;;;5003631;28;20030;-78
2022/04/04 08:14:24;;;;;;;2.05;1.85;;;0.10;99.90;;;;;;5002558;28;20103;-77
2022/04/04 08:16:50;;;;;;;3.55;3.03;;;0.10;99.90;;;;;;4987094;28;20064;-78
2022/04/04 08:19:17;;;;;;;4.25;3.00;;;0.30;99.90;;;;;;4989354;28;20038;-77
2022/04/04 08:21:44;;;;;;;3.90;3.50;;;0.30;99.90;;;;;;5005479;28;20097;-77
2022/04/04 08:24:11;;;;;;;3.90;3.47;;;0.40;99.90;;;;;;5002362;28;20037;-77
2022/04/04 08:26:38;;;;;;;4.20;3.43;;;0.50;99.90;;;;;;5005490;28;20099;-77
2022/04/04 08:29:03;;;;;;;5.05;4.50;;;0.70;99.90;;;;;;5002711;28;20495;-77
2022/04/04 08:31:29;;;;;;;2.58;2.40;;;0.80;99.00;;;;;;5004469;28;20050;-77
2022/04/04 08:33:54;;;;;;;6.80;3.90;;;0.80;98.20;;;;;;5002600;28;20121;-77
2022/04/04 08:36:21;;;;;;;3.78;2.88;;;0.90;99.90;;;;;;5003926;28;20129;-77
2022/04/04 08:38:46;;;;;;;6.35;4.07;;;0.90;99.90;;;;;;5008937;28;20165;-77
2022/04/04 08:41:12;;;;;;;2.25;2.10;;;1.00;99.90;;;;;;4988377;28;20109;-78
2022/04/04 08:43:43;;;;;;;1.98;1.88;;;1.20;98.20;;;;;;5002702;28;20045;-77
2022/04/04 08:46:09;;;;;;;3.40;2.50;;;1.30;95.70;;;;;;5002253;28;20038;-77
2022/04/04 08:48:39;;;;;;;3.05;2.40;;;1.20;98.00;;;;;;5006573;28;20508;-77
2022/04/04 08:51:09;;;;;;;3.20;2.50;;;1.30;92.00;;;;;;5004802;28;20062;-77
2022/04/04 08:53:36;;;;;;;3.72;2.92;;;1.40;97.60;;;;;;5005764;28;20040;-77
2022/04/04 08:56:04;;;;;;;2.58;1.83;;;1.60;91.20;;;;;;4989062;28;20041;-77
2022/04/04 08:58:30;;;;;;;4.93;2.80;;;1.50;80.40;;;;;;5009528;28;20037;-77
2022/04/04 09:00:55;;;;;;;3.80;2.53;;;1.50;90.90;;;;;;5007110;28;20553;-78
2022/04/04 09:03:23;;;;;;;1.83;1.73;;;1.60;90.30;;;;;;5004187;28;20113;-77
2022/04/04 09:06:18;;;;;;;3.15;2.30;;;1.50;72.90;;;;;;4986253;28;20099;-77
2022/04/04 09:08:48;;;;;;;2.40;2.20;;;1.60;79.20;;;;;;4984994;28;20420;-77
2022/04/04 09:11:14;;;;;;;2.47;2.28;;;1.70;75.50;;;;;;5002894;28;20073;-78
2022/04/04 09:13:41;;;;;;;3.13;2.60;;;1.80;73.80;;;;;;4985995;28;20026;-77
2022/04/04 09:16:08;;;;;;;3.70;2.67;;;1.80;85.70;;;;;;5007403;28;20030;-77
2022/04/04 09:18:37;;;;;;;2.10;2.00;;;1.90;79.40;;;;;;5001185;28;20042;-77
2022/04/04 09:21:03;;;;;;;;;;;2.00;80.20;;;;;;5004049;28;20037;-77
2022/04/04 09:23:54;;;;;;;3.67;2.40;;;2.00;84.80;;;;;;5002655;28;19913;-77
2022/04/04 09:26:33;;;;;;;3.25;2.95;;;2.20;90.70;;;;;;5007310;28;20117;-77
2022/04/04 09:29:14;;;;;;;5.15;2.90;;;2.20;92.90;;;;;;4984965;28;20050;-77
2022/04/04 09:31:54;;;;;;;5.07;2.70;;;2.20;80.10;;;;;;5003045;28;20042;-76
2022/04/04 09:34:20;;;;;;;2.72;2.53;;;2.20;91.70;;;;;;5006407;28;20033;-77
2022/04/04 09:36:47;;;;;;;2.83;1.92;;;2.30;94.10;;;;;;5005714;28;20385;-77
2022/04/04 09:39:14;;;;;;;3.95;3.08;;;2.30;86.90;;;;;;5008083;28;20026;-77
2022/04/04 09:41:40;;;;;;;2.47;2.28;;;2.30;93.40;;;;;;4987088;28;20041;-77
2022/04/04 09:44:08;;;;;;;5.05;3.17;;;2.40;93.30;;;;;;5004868;28;20044;-77
2022/04/04 09:46:38;;;;;;;5.18;3.85;;;2.50;91.30;;;;;;5005952;28;20116;-77
2022/04/04 09:49:15;;;;;;;5.18;4.68;;;2.50;95.00;;;;;;5008458;28;20035;-77
2022/04/04 09:51:41;;;;;;;3.30;3.08;;;2.70;96.20;;;;;;5004057;28;20497;-77
2022/04/04 09:54:12;;;;;;;3.08;2.78;;;2.60;89.60;;;;;;5003036;28;20038;-77
2022/04/04 09:56:38;;;;;;;7.22;4.47;;;2.60;89.40;;;;;;5003168;28;20104;-78
2022/04/04 09:59:04;;;;;;;4.15;2.42;;;2.90;93.10;;;;;;5005502;28;20042;-77
2022/04/04 10:01:32;;;;;;;4.65;4.10;;;3.00;76.10;;;;;;4998103;28;20064;-78
2022/04/04 10:03:57;;;;;;;4.35;2.63;;;3.10;76.10;;;;;;5005216;28;20121;-78
2022/04/04 10:06:30;;;;;;;4.70;3.35;;;3.10;94.80;;;;;;5005938;28;20093;-78
2022/04/04 10:08:58;;;;;;;3.90;3.30;;;3.30;89.70;;;;;;4998356;28;23163;-78
2022/04/04 10:11:25;;;;;;;4.33;3.53;;;3.40;87.10;;;;;;5004767;28;20045;-77
2022/04/04 10:13:54;;;;;;;6.30;3.70;;;3.40;91.40;;;;;;4999899;28;20285;-77
2022/04/04 10:16:24;;;;;;;4.72;3.50;;;3.30;84.90;;;;;;5000196;28;20077;-77
2022/04/04 10:18:51;;;;;;;6.05;4.28;;;3.10;86.80;;;;;;5000830;28;20052;-77
2022/04/04 10:21:18;;;;;;;6.13;4.25;;;3.20;91.50;;;;;;5008500;28;20087;-77
2022/04/04 10:23:47;;;;;;;6.00;4.07;;;3.30;91.20;;;;;;5002792;28;20048;-78
2022/04/04 10:26:15;;;;;;;5.45;3.47;;;3.50;88.60;;;;;;5003456;28;20037;-78
2022/04/04 10:28:44;;;;;;;6.35;4.95;;;3.60;88.10;;;;;;5005075;28;20038;-77
2022/04/04 10:31:28;;;;;;;4.78;4.28;;;3.40;89.70;;;;;;5003835;28;20063;-77
2022/04/04 10:34:09;;;;;;;3.22;2.58;;;3.40;87.90;;;;;;5003277;28;20041;-77
2022/04/04 10:36:35;;;;;;;7.22;5.85;;;3.30;88.20;;;;;;5002844;28;20810;-78
2022/04/04 10:39:01;;;;;;;6.32;4.82;;;3.20;86.50;;;;;;5001227;28;20432;-77
2022/04/04 10:41:28;;;;;;;3.78;3.33;;;3.10;78.40;;;;;;5003117;28;20148;-77
2022/04/04 10:43:55;;;;;;;6.43;4.07;;;3.20;82.30;;;;;;5003403;28;20042;-77
2022/04/04 10:46:25;;;;;;;4.30;3.90;;;3.20;84.00;;;;;;4999391;28;20620;-77
2022/04/04 10:48:53;;;;;;;5.22;3.78;;;3.20;90.20;;;;;;5001309;28;20030;-77
2022/04/04 10:51:34;;;;;;;5.38;3.75;;;3.60;95.60;;;;;;4984215;28;20034;-78
2022/04/04 10:54:10;;;;;;;3.92;2.90;;;3.90;89.50;;;;;;5003215;28;20421;-78
2022/04/04 10:56:42;;;;;;;4.22;3.10;;;3.90;93.70;;;;;;5007207;28;20065;-78
2022/04/04 10:59:16;;;;;;;6.22;3.80;;;3.90;89.20;;;;;;5003797;28;20091;-77
2022/04/04 11:01:49;;;;;;;17.83;3.20;;;3.90;86.80;;;;;;5005119;28;20054;-78
2022/04/04 11:04:30;;;;;;;5.00;4.18;;;4.00;91.50;;;;;;5005283;28;20041;-78
2022/04/04 11:10:05;;;;;;;4.05;3.42;;;3.50;89.10;;;;;;5002636;28;20029;-77
2022/04/04 11:12:54;;;;;;;4.82;3.70;;;3.90;96.10;;;;;;5001769;28;20126;-77
2022/04/04 11:16:02;;;;;;;8.88;4.15;;;4.20;92.40;;;;;;5000173;28;20070;-77
2022/04/04 11:18:51;;;;;;;3.95;3.45;;;4.30;90.60;;;;;;5000975;28;20061;-77
2022/04/04 11:21:49;;;;;;;4.68;3.80;;;4.50;91.20;;;;;;5002159;28;20041;-77
2022/04/04 11:24:15;;;;;;;;;;;4.50;77.90;;;;;;4943532;28;20132;-77
2022/04/04 11:26:42;;;;;;;8.43;4.40;;;4.40;82.30;;;;;;5001165;28;20398;-78
2022/04/04 11:29:10;;;;;;;5.63;4.22;;;4.70;91.30;;;;;;4983168;28;20630;-77
2022/04/04 11:31:47;;;;;;;5.47;3.63;;;4.80;92.10;;;;;;5001577;28;20100;-77
2022/04/04 11:34:13;;;;;;;5.70;3.92;;;4.90;81.20;;;;;;5002523;28;20026;-78
2022/04/04 11:36:40;;;;;;;4.50;3.42;;;4.80;83.10;;;;;;5002333;28;20293;-77
2022/04/04 11:39:08;;;;;;;8.20;4.10;;;4.60;89.90;;;;;;4987645;28;20022;-77
2022/04/04 11:41:39;;;;;;;5.88;4.07;;;4.70;88.70;;;;;;5000543;28;20151;-77
2022/04/04 11:44:06;;;;;;;8.18;4.00;;;4.80;95.00;;;;;;5003555;28;20524;-76
2022/04/04 11:46:32;;;;;;;4.63;3.90;;;5.10;85.50;;;;;;4986465;28;20041;-77
2022/04/04 11:48:59;;;;;;;5.10;4.20;;;5.20;96.50;;;;;;5004927;28;20077;-76
2022/04/04 11:51:32;;;;;;;5.97;3.80;;;5.20;84.60;;;;;;5007246;28;20044;-77
2022/04/04 11:54:09;;;;;;;5.38;3.92;;;5.30;94.70;;;;;;5006105;28;20088;-77
2022/04/04 11:56:35;;;;;;;4.47;4.10;;;5.30;80.40;;;;;;5007836;28;20042;-77
2022/04/04 11:59:04;;;;;;;4.72;3.05;;;5.00;82.30;;;;;;5010242;28;20037;-76
2022/04/04 12:01:34;;;;;;;3.50;3.20;;;4.80;90.90;;;;;;5007741;28;20042;-77
2022/04/04 12:04:01;;;;;;;7.15;6.00;;;4.80;78.30;;;;;;5008896;28;20500;-77
2022/04/04 12:06:31;;;;;;;6.03;3.78;;;4.70;75.90;;;;;;5005501;28;20117;-78
2022/04/04 12:09:03;;;;;;;4.10;3.03;;;4.90;78.10;;;;;;5006846;28;20042;-77
2022/04/04 12:11:30;;;;;;;7.68;4.85;;;4.80;70.80;;;;;;5007011;28;20117;-78
2022/04/04 12:13:57;;;;;;;5.63;3.75;;;5.00;84.70;;;;;;4992498;28;20066;-78
2022/04/04 12:16:23;;;;;;;5.25;4.75;;;5.10;78.20;;;;;;5006794;28;20037;-78
2022/04/04 12:18:59;;;;;;;6.40;4.15;;;5.40;75.70;;;;;;4989987;28;20057;-78
2022/04/04 12:21:25;;;;;;;4.25;3.55;;;5.30;90.60;;;;;;5010467;28;20528;-78
2022/04/04 12:26:36;;;;;;;6.25;4.82;;;5.30;72.10;;;;;;5009276;28;20546;-79
2022/04/04 12:29:08;;;;;;;4.75;4.03;;;5.30;76.20;;;;;;4993270;28;20034;-78
2022/04/04 12:31:34;;;;;;;5.82;4.40;;;5.40;82.80;;;;;;5006810;28;20045;-78
2022/04/04 12:34:06;;;;;;;6.38;5.60;;;5.40;73.70;;;;;;5006581;28;20034;-78
2022/04/04 12:36:38;;;;;;;6.28;4.97;;;5.40;78.10;;;;;;5006879;28;20030;-78
2022/04/04 12:39:24;;;;;;;4.78;3.60;;;5.30;71.00;;;;;;5006109;28;20037;-79
2022/04/04 12:41:53;;;;;;;7.32;4.88;;;5.40;86.80;;;;;;5004195;28;20523;-78
2022/04/04 12:44:21;;;;;;;6.60;4.47;;;5.60;74.70;;;;;;5010261;28;20665;-78
2022/04/04 12:46:47;;;;;;;5.00;4.07;;;5.60;72.10;;;;;;5006611;28;20493;-78
2022/04/04 12:49:22;;;;;;;5.90;5.18;;;5.40;81.20;;;;;;5004373;28;20030;-77
2022/04/04 12:52:05;;;;;;;6.97;5.47;;;5.30;78.30;;;;;;5007775;28;20516;-78
2022/04/04 12:54:36;;;;;;;5.53;3.97;;;5.40;81.60;;;;;;5008566;28;20336;-78
2022/04/04 12:57:07;;;;;;;5.75;4.28;;;5.60;88.00;;;;;;5006937;28;20073;-78
2022/04/04 12:59:51;;;;;;;5.05;3.75;;;5.60;75.30;;;;;;5003490;28;20030;-78
2022/04/04 13:02:16;;;;;;;6.95;5.00;;;5.80;86.90;;;;;;5006209;28;20041;-78
2022/04/04 13:04:42;;;;;;;6.55;5.75;;;6.20;73.90;;;;;;5003614;28;20363;-77
2022/04/04 13:07:18;;;;;;;6.88;3.92;;;6.10;73.40;;;;;;5004018;28;20069;-79